Time;durP1;ratioP1;P1;durP2;ratioP2;P2;SDS_P1;SDS_P2;PMS_P1;PMS_P2;Temp;Humidity;BMP_temperature;BMP_pressure;BME280_temperature;BME280_humidity;BME280_pressure;Samples;Min_cycle;Max_cycle;Signal;HPM_P1;HPM_P2
2023/03/28 00:01:12;;;;;;;11.17;6.13;;;2.60;99.90;;;;;;5054764;28;20556;-58
2023/03/28 00:03:38;;;;;;;11.30;5.90;;;2.60;99.90;;;;;;5054851;28;20224;-58
2023/03/28 00:06:17;;;;;;;13.13;6.53;;;2.60;99.90;;;;;;5054433;28;20636;-58
2023/03/28 00:08:44;;;;;;;11.17;6.20;;;2.50;99.90;;;;;;5054398;28;20175;-58
2023/03/28 00:11:18;;;;;;;12.53;5.53;;;2.50;99.90;;;;;;5054922;28;20170;-58
2023/03/28 00:13:45;;;;;;;10.00;5.30;;;2.50;99.90;;;;;;5054312;28;20305;-58
2023/03/28 00:16:12;;;;;;;8.57;5.77;;;2.40;99.90;;;;;;5054706;28;20171;-58
2023/03/28 00:18:38;;;;;;;9.87;6.13;;;2.40;99.90;;;;;;5054388;28;20184;-57
2023/03/28 00:21:18;;;;;;;11.87;5.70;;;2.40;99.90;;;;;;5054183;28;20205;-58
2023/03/28 00:23:44;;;;;;;12.10;5.87;;;2.40;99.90;;;;;;5054254;28;20234;-58
2023/03/28 00:26:12;;;;;;;10.30;5.13;;;2.30;99.90;;;;;;5053380;28;20178;-58
2023/03/28 00:28:38;;;;;;;9.40;5.63;;;2.40;99.90;;;;;;5054273;28;20549;-58
2023/03/28 00:31:05;;;;;;;19.47;6.07;;;2.40;99.90;;;;;;5054423;28;20172;-58
2023/03/28 00:33:31;;;;;;;13.17;5.83;;;2.30;99.90;;;;;;5053920;28;20297;-58
2023/03/28 00:35:57;;;;;;;11.93;5.90;;;2.40;99.90;;;;;;5053816;28;20211;-58
2023/03/28 00:38:23;;;;;;;11.23;5.73;;;2.40;99.90;;;;;;5054108;28;20198;-58
2023/03/28 00:40:48;;;;;;;9.93;5.23;;;2.40;99.90;;;;;;5052590;28;20175;-58
2023/03/28 00:43:14;;;;;;;8.53;6.10;;;2.40;99.90;;;;;;5053910;28;20174;-58
2023/03/28 00:45:41;;;;;;;15.10;6.00;;;2.30;99.90;;;;;;5053694;28;20186;-58
2023/03/28 00:48:15;;;;;;;11.37;5.70;;;2.30;99.90;;;;;;5053721;28;20301;-58
2023/03/28 00:50:47;;;;;;;12.57;6.70;;;2.30;99.90;;;;;;5053560;28;20183;-59
2023/03/28 00:53:18;;;;;;;11.73;5.60;;;2.30;99.90;;;;;;5053777;28;20240;-58
2023/03/28 00:56:00;;;;;;;10.43;5.53;;;2.40;99.90;;;;;;5053852;28;20166;-58
2023/03/28 00:58:31;;;;;;;8.33;5.70;;;2.40;99.90;;;;;;5053496;28;20174;-58
2023/03/28 01:00:57;;;;;;;11.83;5.83;;;2.30;99.90;;;;;;5053623;28;20629;-58
2023/03/28 01:03:27;;;;;;;10.60;5.40;;;2.20;99.90;;;;;;5053588;28;20627;-58
2023/03/28 01:05:55;;;;;;;11.73;5.73;;;2.30;99.90;;;;;;5053559;28;20179;-58
2023/03/28 01:08:28;;;;;;;11.70;5.70;;;2.20;99.90;;;;;;5053432;28;20207;-58
2023/03/28 01:10:53;;;;;;;10.87;5.63;;;2.10;99.90;;;;;;5053622;28;20168;-58
2023/03/28 01:13:30;;;;;;;11.03;5.90;;;2.10;99.90;;;;;;5053193;28;20237;-58
2023/03/28 01:15:58;;;;;;;10.43;5.83;;;2.10;99.90;;;;;;5053490;28;20273;-58
2023/03/28 01:18:24;;;;;;;15.63;6.40;;;2.00;99.90;;;;;;5053334;28;20178;-58
2023/03/28 01:21:05;;;;;;;9.23;6.07;;;1.90;99.90;;;;;;5053352;28;20254;-58
2023/03/28 01:23:54;;;;;;;7.73;5.20;;;1.90;99.90;;;;;;5053316;28;20228;-58
2023/03/28 01:26:55;;;;;;;10.97;5.90;;;1.80;99.90;;;;;;5053088;28;20181;-58
2023/03/28 01:29:29;;;;;;;9.60;5.37;;;1.80;99.90;;;;;;5040729;28;20661;-58
2023/03/28 01:32:33;;;;;;;10.97;5.73;;;1.70;99.90;;;;;;5052996;28;20185;-58
2023/03/28 01:35:27;;;;;;;9.70;5.13;;;1.70;99.90;;;;;;5053138;28;20206;-58
2023/03/28 01:38:12;;;;;;;12.00;5.43;;;1.70;99.90;;;;;;5035600;28;20287;-58
2023/03/28 01:40:46;;;;;;;8.07;4.97;;;1.60;99.90;;;;;;5059549;28;20540;-58
2023/03/28 01:43:32;;;;;;;9.03;5.23;;;1.50;99.90;;;;;;5059768;28;20167;-58
2023/03/28 01:45:58;;;;;;;11.27;5.30;;;1.50;99.90;;;;;;5059656;28;20182;-58
2023/03/28 01:48:41;;;;;;;9.37;4.80;;;1.50;99.90;;;;;;5059611;28;20257;-58
2023/03/28 01:51:34;;;;;;;8.13;4.57;;;1.50;99.90;;;;;;5059545;28;20178;-58
2023/03/28 01:54:03;;;;;;;10.10;5.00;;;1.50;99.90;;;;;;5059597;28;20209;-58
2023/03/28 01:56:50;;;;;;;14.43;5.30;;;1.50;99.90;;;;;;5059532;28;20176;-58
2023/03/28 01:59:46;;;;;;;9.50;4.73;;;1.50;99.90;;;;;;5059478;28;20182;-58
2023/03/28 02:02:48;;;;;;;8.97;4.80;;;1.50;99.90;;;;;;5056916;28;20217;-58
2023/03/28 02:05:18;;;;;;;13.70;5.20;;;1.50;99.90;;;;;;5058097;28;20189;-58
2023/03/28 02:07:45;;;;;;;10.53;5.03;;;1.50;99.90;;;;;;5059278;28;20176;-58
2023/03/28 02:10:14;;;;;;;10.20;4.63;;;1.50;99.90;;;;;;5059349;28;20232;-58
2023/03/28 02:12:47;;;;;;;11.70;5.40;;;1.50;99.90;;;;;;5059490;28;20198;-58
2023/03/28 02:15:16;;;;;;;7.77;4.90;;;1.60;99.90;;;;;;5059687;28;20209;-58
2023/03/28 02:17:51;;;;;;;11.90;5.03;;;1.60;99.90;;;;;;5059455;28;20177;-58
2023/03/28 02:20:21;;;;;;;10.63;5.00;;;1.60;99.90;;;;;;5059290;28;20239;-59
2023/03/28 02:22:49;;;;;;;10.07;4.80;;;1.60;99.90;;;;;;5059652;28;20265;-58
2023/03/28 02:25:17;;;;;;;9.43;5.17;;;1.60;99.90;;;;;;5059434;28;20209;-58
2023/03/28 02:27:44;;;;;;;8.87;4.60;;;1.60;99.90;;;;;;5059379;28;20174;-58
2023/03/28 02:30:11;;;;;;;8.57;4.80;;;1.60;99.90;;;;;;5059319;28;20175;-58
2023/03/28 02:32:37;;;;;;;9.97;4.63;;;1.60;99.90;;;;;;5059322;28;20208;-58
2023/03/28 02:35:05;;;;;;;6.93;4.73;;;1.60;99.90;;;;;;5059020;28;20214;-58
2023/03/28 02:37:43;;;;;;;9.10;5.07;;;1.60;99.90;;;;;;5059403;28;20172;-58
2023/03/28 02:40:23;;;;;;;8.47;4.93;;;1.60;99.90;;;;;;5059282;28;20209;-58
2023/03/28 02:42:49;;;;;;;9.33;4.90;;;1.50;99.90;;;;;;5059387;28;20197;-58
2023/03/28 02:45:18;;;;;;;10.60;4.77;;;1.60;99.90;;;;;;5059138;28;20634;-58
2023/03/28 02:48:08;;;;;;;10.17;4.63;;;1.60;99.90;;;;;;5059211;28;20174;-58
2023/03/28 02:50:37;;;;;;;9.70;4.97;;;1.60;99.90;;;;;;5055815;28;20580;-58
2023/03/28 02:53:35;;;;;;;10.97;5.17;;;1.60;99.90;;;;;;5056013;28;20172;-58
2023/03/28 02:56:14;;;;;;;9.33;4.60;;;1.60;99.90;;;;;;5043571;28;20241;-58
2023/03/28 02:58:57;;;;;;;9.93;4.70;;;1.60;99.90;;;;;;5055943;28;20189;-58
2023/03/28 03:01:24;;;;;;;11.50;5.00;;;1.60;99.90;;;;;;5055726;28;20683;-58
2023/03/28 03:03:50;;;;;;;8.07;5.37;;;1.60;99.90;;;;;;5055655;28;20178;-58
2023/03/28 03:06:16;;;;;;;6.40;4.03;;;1.60;99.90;;;;;;5055585;28;20183;-58
2023/03/28 03:08:43;;;;;;;8.30;4.47;;;1.60;99.90;;;;;;5055674;28;20179;-59
2023/03/28 03:11:08;;;;;;;9.43;5.00;;;1.50;99.90;;;;;;5055708;28;20175;-58
2023/03/28 03:13:34;;;;;;;12.20;4.97;;;1.60;99.90;;;;;;5055512;28;20645;-58
2023/03/28 03:16:00;;;;;;;9.07;4.93;;;1.60;99.90;;;;;;5055452;28;20547;-58
2023/03/28 03:18:26;;;;;;;10.03;4.87;;;1.60;99.90;;;;;;5055535;28;20193;-58
2023/03/28 03:20:52;;;;;;;11.97;5.43;;;1.60;99.90;;;;;;5055664;28;20505;-58
2023/03/28 03:23:18;;;;;;;9.63;5.10;;;1.50;99.90;;;;;;5055060;28;20265;-58
2023/03/28 03:25:43;;;;;;;8.27;5.00;;;1.60;99.90;;;;;;5055453;28;20174;-58
2023/03/28 03:28:09;;;;;;;10.90;5.80;;;1.50;99.90;;;;;;5055193;28;20523;-58
2023/03/28 03:30:35;;;;;;;12.83;5.53;;;1.50;99.90;;;;;;5055176;28;20175;-58
2023/03/28 03:33:01;;;;;;;8.30;4.97;;;1.50;99.90;;;;;;5055078;28;20186;-58
2023/03/28 03:35:32;;;;;;;9.57;5.53;;;1.50;99.90;;;;;;5054983;28;20260;-58
2023/03/28 03:37:58;;;;;;;13.60;5.67;;;1.50;99.90;;;;;;5055161;28;20188;-58
2023/03/28 03:40:25;;;;;;;9.57;5.03;;;1.50;99.90;;;;;;5055066;28;20183;-58
2023/03/28 03:42:50;;;;;;;11.77;5.87;;;1.40;99.90;;;;;;5054994;28;20170;-58
2023/03/28 03:45:16;;;;;;;10.43;5.23;;;1.40;99.90;;;;;;5055207;28;20256;-58
2023/03/28 03:47:42;;;;;;;11.20;5.70;;;1.40;99.90;;;;;;5054724;28;20661;-58
2023/03/28 03:50:08;;;;;;;13.17;5.63;;;1.40;99.90;;;;;;5055084;28;20190;-58
2023/03/28 03:52:35;;;;;;;10.90;5.43;;;1.40;99.90;;;;;;5054890;28;20178;-58
2023/03/28 03:55:00;;;;;;;13.33;5.50;;;1.40;99.90;;;;;;5054615;28;20301;-58
2023/03/28 03:57:27;;;;;;;8.43;5.53;;;1.40;99.90;;;;;;5054648;28;20581;-58
2023/03/28 03:59:52;;;;;;;8.17;5.30;;;1.30;99.90;;;;;;5054641;28;20205;-58
2023/03/28 04:02:18;;;;;;;9.30;5.03;;;1.40;99.90;;;;;;5054246;28;20187;-58
2023/03/28 04:04:46;;;;;;;8.40;5.70;;;1.30;99.90;;;;;;5054805;28;20176;-58
2023/03/28 04:07:12;;;;;;;9.90;5.10;;;1.30;99.90;;;;;;5054495;28;20183;-58
2023/03/28 04:09:38;;;;;;;9.90;5.60;;;1.30;99.90;;;;;;5054443;28;20183;-58
2023/03/28 04:12:05;;;;;;;8.50;5.30;;;1.30;99.90;;;;;;5054428;28;20528;-58
2023/03/28 04:14:31;;;;;;;9.67;5.33;;;1.30;99.90;;;;;;5054253;28;20279;-59
2023/03/28 04:16:56;;;;;;;10.00;5.53;;;1.30;99.90;;;;;;5054282;28;20679;-58
2023/03/28 04:19:24;;;;;;;10.77;5.73;;;1.30;99.90;;;;;;5054181;28;20636;-58
2023/03/28 04:21:51;;;;;;;9.57;5.13;;;1.30;99.90;;;;;;5054348;28;20210;-58
2023/03/28 04:24:23;;;;;;;10.90;5.20;;;1.30;99.90;;;;;;5053927;28;20317;-59
2023/03/28 04:26:49;;;;;;;8.60;5.43;;;1.20;99.90;;;;;;5054287;28;20593;-58
2023/03/28 04:29:16;;;;;;;12.80;5.80;;;1.20;99.90;;;;;;5054209;28;20190;-58
2023/03/28 04:31:48;;;;;;;9.90;5.30;;;1.20;99.90;;;;;;5053880;28;20269;-58
2023/03/28 04:34:15;;;;;;;10.97;5.57;;;1.20;99.90;;;;;;5054106;28;20258;-58
2023/03/28 04:36:41;;;;;;;7.87;4.73;;;1.20;99.90;;;;;;5054046;28;20244;-58
2023/03/28 04:39:07;;;;;;;13.07;5.53;;;1.20;99.90;;;;;;5053731;28;20182;-58
2023/03/28 04:41:33;;;;;;;9.40;5.67;;;1.20;99.90;;;;;;5053699;28;20186;-58
2023/03/28 04:43:59;;;;;;;8.57;5.07;;;1.10;99.90;;;;;;5053352;28;20181;-58
2023/03/28 04:46:27;;;;;;;10.03;5.60;;;1.10;99.90;;;;;;5053381;28;20180;-57
2023/03/28 04:48:53;;;;;;;14.50;5.53;;;1.10;99.90;;;;;;5053759;28;20189;-58
2023/03/28 04:51:19;;;;;;;8.87;5.23;;;1.10;99.90;;;;;;5053813;28;20211;-58
2023/03/28 04:53:44;;;;;;;11.37;5.47;;;1.10;99.90;;;;;;5053677;28;20297;-57
2023/03/28 04:56:12;;;;;;;14.87;5.77;;;1.00;99.90;;;;;;5053718;28;20176;-57
2023/03/28 04:58:39;;;;;;;10.67;5.50;;;1.10;99.90;;;;;;5053175;28;20640;-58
2023/03/28 05:01:09;;;;;;;9.30;6.30;;;1.10;99.90;;;;;;5053542;28;20193;-58
2023/03/28 05:03:35;;;;;;;15.93;6.80;;;1.10;99.90;;;;;;5053535;28;20173;-58
2023/03/28 05:06:01;;;;;;;17.30;8.07;;;1.00;99.90;;;;;;5053102;28;20178;-58
2023/03/28 05:08:27;;;;;;;11.43;7.10;;;1.00;99.90;;;;;;5053098;28;20659;-58
2023/03/28 05:10:54;;;;;;;11.13;6.70;;;1.10;99.90;;;;;;5053273;28;20216;-60
2023/03/28 05:13:20;;;;;;;6.87;5.20;;;1.10;99.90;;;;;;5051574;28;20252;-58
2023/03/28 05:15:47;;;;;;;11.20;5.23;;;1.00;99.90;;;;;;5053341;28;20181;-59
2023/03/28 05:18:13;;;;;;;13.33;5.37;;;1.00;99.90;;;;;;5053135;28;20257;-58
2023/03/28 05:20:39;;;;;;;12.23;6.13;;;1.10;99.90;;;;;;5052194;28;20673;-58
2023/03/28 05:23:05;;;;;;;9.73;5.73;;;1.10;99.90;;;;;;5053078;28;20281;-58
2023/03/28 05:25:31;;;;;;;9.17;6.27;;;1.10;99.90;;;;;;5053008;28;20278;-58
2023/03/28 05:27:57;;;;;;;14.83;6.10;;;1.10;99.90;;;;;;5053039;28;20249;-58
2023/03/28 05:30:23;;;;;;;13.40;7.67;;;1.10;99.90;;;;;;5051936;28;20236;-58
2023/03/28 05:32:49;;;;;;;13.53;9.67;;;1.10;99.90;;;;;;5053212;28;20233;-58
2023/03/28 05:35:15;;;;;;;14.90;8.93;;;1.10;99.90;;;;;;5052971;28;20218;-58
2023/03/28 05:37:41;;;;;;;12.07;8.20;;;1.10;99.90;;;;;;5052959;28;20186;-58
2023/03/28 05:40:09;;;;;;;13.87;8.00;;;1.20;99.90;;;;;;5052813;28;20643;-58
2023/03/28 05:42:35;;;;;;;12.10;7.27;;;1.10;99.90;;;;;;5052759;28;20186;-58
2023/03/28 05:45:03;;;;;;;13.70;6.77;;;1.30;99.90;;;;;;5053017;28;20181;-58
2023/03/28 05:47:28;;;;;;;12.50;6.07;;;1.30;99.90;;;;;;5052962;28;20167;-58
2023/03/28 05:49:54;;;;;;;18.73;7.93;;;1.30;99.90;;;;;;5052891;28;20179;-58
2023/03/28 05:52:20;;;;;;;13.30;7.07;;;1.40;99.90;;;;;;5052906;28;20194;-58
2023/03/28 05:54:46;;;;;;;10.43;6.20;;;1.40;99.90;;;;;;5052803;28;20210;-58
2023/03/28 05:57:11;;;;;;;10.47;6.87;;;1.50;99.90;;;;;;5052759;28;20167;-58
2023/03/28 05:59:39;;;;;;;16.00;9.53;;;1.60;99.90;;;;;;5052932;28;20186;-59
2023/03/28 06:02:10;;;;;;;19.73;11.70;;;1.70;99.90;;;;;;5052846;28;20236;-59
2023/03/28 06:04:36;;;;;;;15.50;9.10;;;1.60;99.90;;;;;;5052959;28;20179;-58
2023/03/28 06:07:02;;;;;;;10.27;7.37;;;1.70;99.90;;;;;;5052586;28;20171;-58
2023/03/28 06:09:30;;;;;;;11.13;7.30;;;1.80;99.90;;;;;;5052618;28;20182;-58
2023/03/28 06:11:56;;;;;;;9.60;6.67;;;1.90;99.90;;;;;;5052535;28;20249;-58
2023/03/28 06:14:22;;;;;;;11.20;6.87;;;2.00;99.90;;;;;;5052725;28;20567;-58
2023/03/28 06:16:48;;;;;;;11.00;6.97;;;2.10;99.90;;;;;;5052652;28;20179;-58
2023/03/28 06:19:13;;;;;;;10.00;7.20;;;2.20;99.90;;;;;;5052683;28;20189;-58
2023/03/28 06:21:39;;;;;;;11.67;7.17;;;2.30;99.90;;;;;;5052652;28;20175;-58
2023/03/28 06:24:05;;;;;;;12.07;6.20;;;2.40;99.90;;;;;;5052236;28;20267;-58
2023/03/28 06:26:31;;;;;;;10.53;6.60;;;2.50;99.90;;;;;;5056057;28;20676;-58
2023/03/28 06:28:56;;;;;;;11.20;6.53;;;2.60;99.90;;;;;;5056349;28;20318;-59
2023/03/28 06:31:22;;;;;;;14.23;6.67;;;2.70;99.90;;;;;;5056357;28;20304;-58
2023/03/28 06:33:48;;;;;;;14.63;7.83;;;2.80;99.90;;;;;;5055933;28;20242;-58
2023/03/28 06:36:14;;;;;;;21.20;10.77;;;2.90;99.90;;;;;;5056278;28;20253;-58
2023/03/28 06:38:40;;;;;;;23.43;11.47;;;3.00;99.90;;;;;;5056105;28;20188;-58
2023/03/28 06:41:06;;;;;;;15.60;8.70;;;3.20;99.90;;;;;;5056064;28;20536;-58
2023/03/28 06:43:31;;;;;;;13.90;7.50;;;3.30;99.90;;;;;;5055778;28;20215;-60
2023/03/28 06:45:57;;;;;;;13.53;6.83;;;3.40;99.90;;;;;;5056322;28;20179;-59
2023/03/28 06:48:29;;;;;;;13.20;6.97;;;3.50;99.90;;;;;;5056029;28;20174;-58
2023/03/28 06:50:55;;;;;;;16.50;7.37;;;3.60;99.90;;;;;;5055958;28;20209;-58
2023/03/28 06:53:21;;;;;;;14.18;7.78;;;3.70;99.90;;;;;;5055731;28;20690;-58
2023/03/28 06:55:49;;;;;;;9.93;7.00;;;3.70;99.90;;;;;;5056312;28;20189;-58
2023/03/28 06:58:15;;;;;;;7.82;4.72;;;3.80;99.90;;;;;;5055962;28;20524;-58
2023/03/28 07:00:41;;;;;;;8.80;5.38;;;3.80;99.90;;;;;;5056134;28;20202;-58
2023/03/28 07:03:07;;;;;;;11.80;5.77;;;3.80;99.90;;;;;;5055782;28;20174;-58
2023/03/28 07:05:38;;;;;;;10.00;5.32;;;3.90;99.90;;;;;;5055589;28;20189;-59
2023/03/28 07:08:05;;;;;;;11.60;4.88;;;3.90;99.90;;;;;;5055469;28;20674;-58
2023/03/28 07:10:31;;;;;;;10.65;4.95;;;4.00;99.90;;;;;;5055742;28;20183;-58
2023/03/28 07:12:56;;;;;;;8.88;4.95;;;4.20;99.90;;;;;;5055933;28;20243;-58
2023/03/28 07:15:22;;;;;;;7.22;4.47;;;4.30;99.90;;;;;;5054322;28;20668;-58
2023/03/28 07:17:47;;;;;;;9.05;4.75;;;4.40;99.90;;;;;;5055309;28;20191;-59
2023/03/28 07:20:13;;;;;;;9.25;4.75;;;4.60;99.90;;;;;;5055441;28;20182;-59
2023/03/28 07:22:39;;;;;;;8.95;5.00;;;4.70;99.90;;;;;;5055003;28;20174;-58
2023/03/28 07:25:06;;;;;;;9.77;4.90;;;4.90;99.90;;;;;;5054386;28;20644;-59
2023/03/28 07:27:33;;;;;;;8.90;4.78;;;5.00;99.90;;;;;;5055232;28;20264;-58
2023/03/28 07:29:59;;;;;;;7.00;4.75;;;5.00;99.90;;;;;;5055315;28;20636;-58
2023/03/28 07:32:25;;;;;;;8.23;5.07;;;5.00;99.90;;;;;;5055240;28;20175;-59
2023/03/28 07:34:50;;;;;;;9.07;5.07;;;5.10;99.90;;;;;;5054887;28;20241;-59
2023/03/28 07:37:16;;;;;;;8.40;4.70;;;5.20;99.90;;;;;;5053294;28;20180;-59
2023/03/28 07:39:42;;;;;;;8.90;4.47;;;5.20;99.90;;;;;;5055193;28;20257;-59
2023/03/28 07:42:12;;;;;;;8.43;4.78;;;5.20;99.90;;;;;;5055168;28;20178;-59
2023/03/28 07:44:38;;;;;;;10.07;4.85;;;5.30;99.90;;;;;;5054892;28;20543;-59
2023/03/28 07:47:03;;;;;;;9.70;4.65;;;5.50;99.90;;;;;;5054947;28;20178;-59
2023/03/28 07:49:29;;;;;;;9.27;4.72;;;5.60;99.90;;;;;;5054803;28;20175;-59
2023/03/28 07:51:55;;;;;;;9.23;4.40;;;5.70;99.90;;;;;;5054600;28;20546;-59
2023/03/28 07:54:21;;;;;;;8.48;4.40;;;5.80;99.90;;;;;;5054721;28;20289;-59
2023/03/28 07:56:47;;;;;;;6.07;3.97;;;6.00;99.90;;;;;;5054864;28;20356;-59
2023/03/28 07:59:13;;;;;;;8.80;4.43;;;6.10;99.90;;;;;;5054666;28;20284;-59
2023/03/28 08:01:40;;;;;;;7.82;3.80;;;6.10;99.90;;;;;;5054606;28;20509;-58
2023/03/28 08:04:07;;;;;;;6.97;5.13;;;6.20;99.90;;;;;;5054631;28;20179;-59
2023/03/28 08:06:36;;;;;;;7.50;4.28;;;6.30;99.90;;;;;;5054380;28;20213;-59
2023/03/28 08:09:07;;;;;;;5.85;4.10;;;6.40;99.90;;;;;;5054646;28;20179;-59
2023/03/28 08:11:37;;;;;;;9.80;4.10;;;6.40;99.90;;;;;;5054527;28;20262;-59
2023/03/28 08:14:04;;;;;;;10.35;3.63;;;6.40;99.90;;;;;;5054342;28;20202;-59
2023/03/28 08:16:31;;;;;;;9.23;4.40;;;6.50;99.90;;;;;;5054357;28;20217;-59
2023/03/28 08:18:57;;;;;;;7.78;3.58;;;6.50;99.90;;;;;;5054529;28;20168;-59
2023/03/28 08:21:24;;;;;;;8.73;3.63;;;6.60;99.90;;;;;;5054413;28;20250;-59
2023/03/28 08:23:50;;;;;;;10.95;3.92;;;6.70;99.90;;;;;;5054114;28;20233;-59
2023/03/28 08:26:16;;;;;;;6.88;4.00;;;6.70;99.90;;;;;;5054067;28;20265;-58
2023/03/28 08:28:42;;;;;;;10.73;3.50;;;6.80;99.90;;;;;;5054043;28;20258;-58
2023/03/28 08:31:12;;;;;;;7.05;3.70;;;6.90;99.90;;;;;;5054022;28;20274;-60
2023/03/28 08:33:39;;;;;;;9.77;3.63;;;7.00;99.90;;;;;;5053421;28;20179;-59
2023/03/28 08:36:05;;;;;;;10.48;3.45;;;7.10;99.90;;;;;;5053668;28;20186;-58
2023/03/28 08:38:31;;;;;;;10.13;3.85;;;7.10;99.90;;;;;;5053965;28;20205;-58
2023/03/28 08:41:23;;;;;;;7.38;3.38;;;7.20;99.90;;;;;;5053122;28;20241;-60
2023/03/28 08:44:13;;;;;;;8.27;3.00;;;7.30;99.90;;;;;;5053638;28;20640;-59
2023/03/28 08:46:41;;;;;;;5.82;2.92;;;7.20;99.90;;;;;;5053730;28;20186;-58
2023/03/28 08:49:13;;;;;;;7.72;2.80;;;7.30;99.90;;;;;;5053150;28;20556;-59
2023/03/28 08:51:42;;;;;;;5.80;3.30;;;7.30;99.90;;;;;;5053771;28;20590;-59
2023/03/28 08:54:30;;;;;;;10.38;2.78;;;7.40;99.90;;;;;;5053507;28;20699;-58
2023/03/28 08:56:59;;;;;;;6.65;2.63;;;7.40;99.90;;;;;;5053764;28;20644;-59
2023/03/28 08:59:57;;;;;;;7.40;3.28;;;7.50;99.90;;;;;;5053490;28;20202;-60
2023/03/28 09:02:27;;;;;;;8.02;3.03;;;7.70;99.90;;;;;;5053528;28;20206;-59
2023/03/28 09:04:54;;;;;;;4.88;3.10;;;8.00;99.90;;;;;;5053316;28;20262;-59
2023/03/28 09:07:45;;;;;;;6.93;2.90;;;8.20;99.90;;;;;;5053511;28;20699;-59
2023/03/28 09:10:20;;;;;;;4.88;2.42;;;8.40;99.90;;;;;;5053480;28;20203;-58
2023/03/28 09:13:13;;;;;;;5.97;2.90;;;8.60;99.90;;;;;;5053376;28;20634;-59
2023/03/28 09:15:53;;;;;;;6.50;2.72;;;8.60;99.90;;;;;;5053445;28;20295;-59
2023/03/28 09:18:44;;;;;;;22.58;5.03;;;8.80;99.90;;;;;;5053609;28;20182;-58
2023/03/28 09:21:21;;;;;;;8.25;2.78;;;8.80;99.90;;;;;;5053416;28;20179;-58
2023/03/28 09:24:05;;;;;;;6.43;2.90;;;8.70;99.90;;;;;;5052784;28;20337;-58
2023/03/28 09:26:41;;;;;;;4.90;2.55;;;8.80;99.90;;;;;;5053241;28;20563;-59
2023/03/28 09:29:16;;;;;;;8.13;3.13;;;8.80;99.90;;;;;;5053075;28;20568;-59
2023/03/28 09:31:48;;;;;;;6.10;2.78;;;9.10;99.90;;;;;;5050442;28;20232;-59
2023/03/28 09:34:32;;;;;;;9.30;3.20;;;9.50;99.90;;;;;;5051535;28;20199;-59
2023/03/28 09:37:05;;;;;;;6.00;2.40;;;9.80;99.90;;;;;;5052960;28;20274;-58
2023/03/28 09:39:48;;;;;;;5.75;2.65;;;9.90;99.90;;;;;;5053038;28;20228;-59
2023/03/28 09:42:40;;;;;;;4.68;2.47;;;10.00;99.90;;;;;;5053049;28;20625;-59
2023/03/28 09:45:29;;;;;;;5.22;2.70;;;9.90;99.90;;;;;;5053035;28;20171;-59
2023/03/28 09:47:55;;;;;;;5.70;2.63;;;9.70;99.90;;;;;;5053007;28;20530;-59
2023/03/28 09:50:21;;;;;;;5.47;2.38;;;9.60;99.90;;;;;;5052894;28;20706;-59
2023/03/28 09:52:49;;;;;;;4.72;2.72;;;9.70;99.90;;;;;;5052761;28;20172;-59
2023/03/28 09:55:20;;;;;;;6.25;2.35;;;9.90;99.90;;;;;;5052656;28;20741;-59
2023/03/28 09:58:06;;;;;;;7.70;3.08;;;10.20;99.90;;;;;;5053117;28;20202;-59
2023/03/28 10:00:46;;;;;;;7.07;2.70;;;10.20;99.90;;;;;;5056222;28;20646;-59
2023/03/28 10:03:21;;;;;;;4.07;2.30;;;10.20;99.90;;;;;;5056886;28;20170;-59
2023/03/28 10:05:50;;;;;;;7.20;2.80;;;10.20;99.90;;;;;;5057022;28;20174;-59
2023/03/28 10:08:24;;;;;;;5.90;2.75;;;10.40;99.90;;;;;;5056857;28;20191;-59
2023/03/28 10:11:12;;;;;;;4.60;2.45;;;10.30;99.90;;;;;;5056636;28;20647;-59
2023/03/28 10:13:46;;;;;;;4.93;2.80;;;10.30;99.90;;;;;;5056614;28;20294;-59
2023/03/28 10:16:14;;;;;;;8.23;2.95;;;10.30;99.90;;;;;;5056722;28;20182;-59
2023/03/28 10:18:41;;;;;;;3.90;2.97;;;10.10;99.90;;;;;;5056548;28;20183;-59
2023/03/28 10:21:17;;;;;;;5.35;2.88;;;10.00;99.90;;;;;;5056650;28;20332;-59
2023/03/28 10:24:07;;;;;;;9.35;3.63;;;10.10;99.90;;;;;;5056598;28;20226;-59
2023/03/28 10:26:33;;;;;;;6.88;3.10;;;10.20;99.90;;;;;;5051116;28;20671;-59
2023/03/28 10:29:02;;;;;;;5.13;2.60;;;10.20;99.90;;;;;;5056502;28;20180;-58
2023/03/28 10:31:30;;;;;;;7.00;3.28;;;10.20;99.90;;;;;;5056334;28;20203;-59
2023/03/28 10:34:03;;;;;;;7.35;2.88;;;10.40;99.90;;;;;;5056232;28;20219;-59
2023/03/28 10:36:36;;;;;;;7.22;2.80;;;10.50;99.90;;;;;;5056156;28;20654;-59
2023/03/28 10:39:22;;;;;;;5.20;2.72;;;10.60;99.90;;;;;;5056345;28;20171;-59
2023/03/28 10:41:56;;;;;;;5.68;3.15;;;10.70;99.90;;;;;;5056180;28;20643;-59
2023/03/28 10:44:31;;;;;;;6.20;3.05;;;10.70;99.90;;;;;;5056090;28;20183;-59
2023/03/28 10:47:00;;;;;;;7.07;2.85;;;10.70;99.90;;;;;;5055913;28;20190;-58
2023/03/28 10:49:29;;;;;;;7.50;2.85;;;10.80;99.90;;;;;;5055559;28;20498;-59
2023/03/28 10:51:55;;;;;;;3.03;2.22;;;10.90;99.90;;;;;;5056115;28;20164;-59
2023/03/28 10:55:02;;;;;;;4.13;2.20;;;11.00;99.90;;;;;;5055432;28;20209;-59
2023/03/28 10:57:55;;;;;;;4.88;2.20;;;11.00;99.90;;;;;;5013757;28;20194;-59
2023/03/28 11:00:39;;;;;;;4.93;2.33;;;11.20;99.90;;;;;;5054796;28;20698;-59
2023/03/28 11:03:14;;;;;;;6.10;2.67;;;11.30;99.90;;;;;;5055849;28;20170;-59
2023/03/28 11:05:54;;;;;;;3.78;1.88;;;11.40;99.70;;;;;;5055754;28;20183;-59
2023/03/28 11:08:49;;;;;;;4.18;2.00;;;11.40;99.10;;;;;;5055718;28;20260;-60
2023/03/28 11:11:17;;;;;;;6.72;2.80;;;11.30;99.30;;;;;;5053435;28;20635;-59
2023/03/28 11:14:02;;;;;;;5.72;2.38;;;11.40;99.50;;;;;;5055501;28;20237;-59
2023/03/28 11:16:46;;;;;;;3.28;2.20;;;11.50;99.20;;;;;;5055675;28;20159;-59
2023/03/28 11:19:27;;;;;;;4.45;2.08;;;11.40;99.10;;;;;;5055555;28;20179;-59
2023/03/28 11:22:02;;;;;;;5.97;2.08;;;11.40;99.60;;;;;;5055414;28;20167;-58
2023/03/28 11:24:36;;;;;;;2.92;2.15;;;11.30;99.70;;;;;;5055130;28;20339;-59
2023/03/28 11:27:30;;;;;;;4.05;2.13;;;11.40;99.90;;;;;;5055648;28;20647;-59
2023/03/28 11:30:17;;;;;;;4.35;2.20;;;11.50;99.90;;;;;;5055336;28;20629;-59
2023/03/28 11:32:53;;;;;;;7.65;3.10;;;11.70;99.90;;;;;;5055175;28;20651;-59
2023/03/28 11:35:30;;;;;;;5.50;2.58;;;11.80;98.90;;;;;;5055423;28;20297;-59
2023/03/28 11:38:13;;;;;;;3.53;1.95;;;11.80;99.70;;;;;;5055316;28;20266;-59
2023/03/28 11:40:41;;;;;;;3.97;2.28;;;11.80;99.60;;;;;;5055030;28;20175;-59
2023/03/28 11:43:11;;;;;;;5.32;2.10;;;11.80;99.10;;;;;;5054990;28;20225;-58
2023/03/28 11:45:47;;;;;;;5.50;2.17;;;11.80;99.90;;;;;;5054885;28;20205;-58
2023/03/28 11:48:22;;;;;;;4.72;2.10;;;11.80;99.90;;;;;;5055034;28;20202;-58
2023/03/28 11:50:51;;;;;;;5.45;2.75;;;11.60;99.70;;;;;;5054979;28;20217;-59
2023/03/28 11:53:47;;;;;;;11.32;5.13;;;11.60;99.60;;;;;;5055177;28;20167;-59
2023/03/28 11:56:36;;;;;;;10.85;4.97;;;11.60;99.70;;;;;;5054708;28;20620;-59
2023/03/28 11:59:10;;;;;;;5.05;2.38;;;11.50;99.90;;;;;;5054725;28;20647;-58
2023/03/28 12:01:41;;;;;;;7.68;2.47;;;11.50;99.90;;;;;;5054730;28;20647;-59
2023/03/28 12:04:16;;;;;;;7.22;2.92;;;11.40;99.90;;;;;;5054568;28;20182;-58
2023/03/28 12:07:02;;;;;;;5.00;2.17;;;11.40;99.90;;;;;;5054711;28;20762;-59
2023/03/28 12:09:36;;;;;;;4.93;2.75;;;11.40;99.90;;;;;;5054699;28;20203;-59
2023/03/28 12:12:33;;;;;;;3.75;2.50;;;11.60;99.90;;;;;;5054467;28;20175;-59
2023/03/28 12:15:06;;;;;;;4.65;2.63;;;11.70;99.90;;;;;;5053625;28;20642;-59
2023/03/28 12:17:55;;;;;;;4.88;2.72;;;11.50;99.90;;;;;;5054429;28;20172;-59
2023/03/28 12:20:59;;;;;;;4.28;2.92;;;11.70;99.90;;;;;;5054263;28;20249;-59
2023/03/28 12:23:36;;;;;;;6.35;2.97;;;11.90;99.90;;;;;;5012042;28;20701;-59
2023/03/28 12:26:31;;;;;;;6.50;2.88;;;12.00;99.90;;;;;;5048228;28;20779;-59
2023/03/28 12:29:07;;;;;;;5.40;3.33;;;12.00;99.90;;;;;;5054146;28;20501;-59
2023/03/28 12:31:52;;;;;;;6.45;3.42;;;12.00;99.90;;;;;;5054273;28;20191;-59
2023/03/28 12:34:36;;;;;;;6.55;3.17;;;11.90;99.90;;;;;;5054079;28;20694;-59
2023/03/28 12:37:23;;;;;;;8.05;3.45;;;11.90;99.90;;;;;;5053945;28;20171;-58
2023/03/28 12:40:22;;;;;;;4.63;3.05;;;11.80;99.90;;;;;;5053829;28;20281;-59
2023/03/28 12:42:51;;;;;;;7.30;3.50;;;11.70;99.90;;;;;;5053879;28;20270;-59
2023/03/28 12:45:40;;;;;;;5.88;3.30;;;11.50;99.90;;;;;;5053804;28;20194;-59
2023/03/28 12:48:15;;;;;;;6.60;3.20;;;11.40;99.90;;;;;;5053730;28;20618;-59
2023/03/28 12:50:45;;;;;;;7.05;3.53;;;11.40;99.90;;;;;;5053897;28;20715;-59
2023/03/28 12:53:12;;;;;;;6.82;3.35;;;11.40;99.90;;;;;;5053827;28;20209;-58
2023/03/28 12:55:45;;;;;;;6.70;3.83;;;11.40;99.90;;;;;;5053547;28;20207;-59
2023/03/28 12:58:23;;;;;;;6.18;3.95;;;11.40;99.90;;;;;;5053569;28;20198;-58
2023/03/28 13:00:51;;;;;;;10.75;4.18;;;11.60;99.90;;;;;;5053704;28;20229;-58
2023/03/28 13:03:17;;;;;;;7.95;3.72;;;11.70;99.90;;;;;;5053632;28;20179;-58
2023/03/28 13:05:52;;;;;;;7.45;3.72;;;11.80;99.90;;;;;;5053356;28;20237;-59
2023/03/28 13:08:23;;;;;;;8.15;3.78;;;11.90;99.90;;;;;;5053455;28;20673;-59
2023/03/28 13:11:05;;;;;;;6.93;4.07;;;11.90;99.90;;;;;;5053283;28;20198;-59
2023/03/28 13:13:52;;;;;;;7.00;3.95;;;12.10;99.90;;;;;;5053549;28;20265;-58
2023/03/28 13:16:41;;;;;;;8.20;3.72;;;12.20;99.90;;;;;;5053406;28;20293;-58